Time;durP1;ratioP1;P1;durP2;ratioP2;P2;SDS_P1;SDS_P2;PMS_P1;PMS_P2;Temp;Humidity;BMP_temperature;BMP_pressure;BME280_temperature;BME280_humidity;BME280_pressure;Samples;Min_cycle;Max_cycle;Signal;HPM_P1;HPM_P2
2022/07/08 00:01:19;;;;;;;1051.97;942.95;;;15.80;1.00;;;;;;5050231;28;20144;-74
2022/07/08 00:03:45;;;;;;;890.55;813.33;;;15.70;1.00;;;;;;5047332;28;20130;-74
2022/07/08 00:06:10;;;;;;;1085.25;886.28;;;15.70;1.00;;;;;;5051807;28;20370;-73
2022/07/08 00:08:36;;;;;;;1159.85;942.75;;;15.60;1.00;;;;;;5062385;28;20044;-74
2022/07/08 00:11:02;;;;;;;828.10;756.80;;;15.60;1.00;;;;;;5053380;28;20048;-74
2022/07/08 00:13:27;;;;;;;962.65;863.47;;;15.50;1.00;;;;;;5050804;28;20075;-74
2022/07/08 00:15:53;;;;;;;998.95;897.08;;;15.40;1.00;;;;;;5039003;28;20442;-74
2022/07/08 00:18:19;;;;;;;1269.65;938.13;;;15.40;1.00;;;;;;5048543;28;20076;-75
2022/07/08 00:20:44;;;;;;;722.97;659.78;;;15.40;1.00;;;;;;5056488;28;20071;-74
2022/07/08 00:23:10;;;;;;;666.88;618.08;;;15.40;1.00;;;;;;5051752;28;20044;-74
2022/07/08 00:25:36;;;;;;;1146.78;965.20;;;15.40;1.00;;;;;;5064164;28;20428;-73
2022/07/08 00:28:02;;;;;;;801.45;738.72;;;15.40;1.00;;;;;;5061663;28;20477;-74
2022/07/08 00:30:27;;;;;;;828.78;763.70;;;15.40;1.00;;;;;;5061937;28;20051;-76
2022/07/08 00:32:53;;;;;;;1029.10;905.58;;;15.40;1.00;;;;;;5069825;28;20044;-73
2022/07/08 00:35:19;;;;;;;1057.93;939.78;;;15.40;1.00;;;;;;5066255;28;20076;-73
2022/07/08 00:37:44;;;;;;;863.53;792.80;;;15.50;1.00;;;;;;5062843;28;20048;-73
2022/07/08 00:40:11;;;;;;;979.05;882.88;;;15.50;1.00;;;;;;5069613;28;20044;-75
2022/07/08 00:42:37;;;;;;;813.67;738.00;;;15.40;1.00;;;;;;5061117;28;20045;-73
2022/07/08 00:45:03;;;;;;;1131.45;976.35;;;15.40;1.00;;;;;;5057550;28;20047;-73
2022/07/08 00:47:30;;;;;;;1034.70;923.88;;;15.40;1.00;;;;;;5062234;28;20037;-80
2022/07/08 00:49:55;;;;;;;1004.55;899.15;;;15.30;1.00;;;;;;5063501;28;20037;-73
2022/07/08 00:52:21;;;;;;;1086.63;893.25;;;15.30;1.00;;;;;;5048197;28;20044;-73
2022/07/08 00:54:47;;;;;;;1033.88;923.00;;;15.30;1.00;;;;;;5065263;28;20057;-74
2022/07/08 00:57:14;;;;;;;1030.68;929.97;;;15.30;1.00;;;;;;5084557;28;20539;-73
2022/07/08 00:59:41;;;;;;;1005.28;904.67;;;15.30;1.00;;;;;;5068475;28;20058;-78
2022/07/08 01:02:07;;;;;;;1147.15;965.22;;;15.30;1.00;;;;;;5050116;28;20053;-73
2022/07/08 01:04:34;;;;;;;1228.18;993.50;;;15.30;1.00;;;;;;5054778;28;20045;-75
2022/07/08 01:07:00;;;;;;;1119.28;945.72;;;15.30;1.00;;;;;;5060388;28;20086;-77
2022/07/08 01:09:26;;;;;;;1418.15;999.13;;;15.30;1.00;;;;;;5070302;28;20048;-74
2022/07/08 01:11:52;;;;;;;992.08;881.95;;;15.30;1.00;;;;;;5060749;28;20316;-73
2022/07/08 01:14:18;;;;;;;1120.53;951.00;;;15.30;1.00;;;;;;5057613;28;20048;-73
2022/07/08 01:16:43;;;;;;;1043.20;930.50;;;15.30;1.00;;;;;;5049741;28;20531;-74
2022/07/08 01:19:09;;;;;;;1123.80;988.30;;;15.20;1.00;;;;;;5054313;28;20041;-77
2022/07/08 01:21:35;;;;;;;1100.63;982.03;;;15.10;1.00;;;;;;5051539;28;20045;-76
2022/07/08 01:24:00;;;;;;;940.30;845.92;;;15.00;1.00;;;;;;5052052;28;20049;-76
2022/07/08 01:26:27;;;;;;;1015.45;900.50;;;14.90;1.00;;;;;;5051748;28;20040;-82
2022/07/08 01:28:54;;;;;;;1152.25;925.28;;;14.80;1.00;;;;;;5051194;28;20521;-75
2022/07/08 01:31:20;;;;;;;898.00;820.88;;;14.80;1.00;;;;;;5052068;28;20083;-76
2022/07/08 01:33:45;;;;;;;1609.35;999.90;;;14.70;1.00;;;;;;5051486;28;20111;-79
2022/07/08 01:36:11;;;;;;;1227.00;974.63;;;14.70;1.00;;;;;;5052585;28;20040;-76
2022/07/08 01:38:37;;;;;;;923.50;817.08;;;14.60;1.00;;;;;;5050702;28;20080;-76
2022/07/08 01:41:03;;;;;;;1156.22;967.17;;;14.80;1.00;;;;;;5052341;28;20362;-76
2022/07/08 01:43:28;;;;;;;1121.88;941.42;;;14.60;1.00;;;;;;5052405;28;20049;-76
2022/07/08 01:45:54;;;;;;;1133.70;990.72;;;14.50;1.00;;;;;;5052578;28;20695;-80
2022/07/08 01:48:20;;;;;;;1116.28;957.60;;;14.50;1.00;;;;;;5082920;28;20572;-76
2022/07/08 01:50:45;;;;;;;986.47;881.58;;;14.40;1.00;;;;;;5051133;28;20390;-75
2022/07/08 01:53:14;;;;;;;1127.35;940.53;;;14.30;1.00;;;;;;5051552;28;20040;-80
2022/07/08 01:55:40;;;;;;;981.25;879.40;;;14.20;1.00;;;;;;5052259;28;20045;-75
2022/07/08 01:58:05;;;;;;;995.58;886.85;;;14.20;1.00;;;;;;5050891;28;20045;-83
2022/07/08 02:00:31;;;;;;;1298.65;977.25;;;14.10;1.00;;;;;;5049485;28;20522;-75
2022/07/08 02:02:57;;;;;;;835.55;757.50;;;14.10;1.00;;;;;;5050785;28;20343;-75
2022/07/08 02:05:23;;;;;;;921.17;833.17;;;14.00;1.00;;;;;;5052172;28;20053;-75
2022/07/08 02:07:48;;;;;;;966.58;849.28;;;14.00;1.00;;;;;;5051275;28;20130;-75
2022/07/08 02:10:14;;;;;;;804.20;737.45;;;13.90;1.00;;;;;;5051708;28;20053;-76
2022/07/08 02:12:40;;;;;;;1637.25;915.83;;;13.90;1.00;;;;;;5051337;28;20048;-81
2022/07/08 02:15:07;;;;;;;1286.40;878.17;;;13.80;1.00;;;;;;5052330;28;20048;-75
2022/07/08 02:17:36;;;;;;;1054.95;799.47;;;13.80;1.00;;;;;;5051571;28;20382;-80
2022/07/08 02:20:13;;;;;;;1660.57;960.65;;;13.80;6.30;;;;;;5050847;28;20095;-84
2022/07/08 02:22:39;;;;;;;1318.88;869.50;;;13.70;10.70;;;;;;5051451;28;20052;-80
2022/07/08 02:25:06;;;;;;;961.85;833.05;;;13.80;17.40;;;;;;5051893;28;20451;-75
2022/07/08 02:27:31;;;;;;;1540.80;925.25;;;13.80;27.30;;;;;;5051525;28;20057;-78
2022/07/08 02:29:57;;;;;;;1623.88;994.03;;;13.90;29.60;;;;;;5051878;28;20124;-76
2022/07/08 02:32:23;;;;;;;776.40;708.78;;;14.00;33.30;;;;;;5050491;28;20054;-75
2022/07/08 02:34:48;;;;;;;934.25;805.80;;;14.00;30.20;;;;;;5051041;28;20044;-76
2022/07/08 02:37:14;;;;;;;761.72;696.55;;;14.10;29.50;;;;;;5051375;28;20073;-76
2022/07/08 02:39:40;;;;;;;805.28;737.33;;;14.10;28.40;;;;;;5052080;28;20450;-91
2022/07/08 02:42:06;;;;;;;1036.63;861.67;;;14.10;32.70;;;;;;5051327;28;20665;-75
2022/07/08 02:44:32;;;;;;;887.28;791.78;;;14.20;32.90;;;;;;5051755;28;20049;-75
2022/07/08 02:46:57;;;;;;;1068.60;843.42;;;14.10;32.40;;;;;;5050359;28;20500;-79
2022/07/08 02:49:23;;;;;;;837.13;761.10;;;14.20;36.80;;;;;;5052066;28;20336;-77
2022/07/08 02:51:49;;;;;;;757.22;689.60;;;14.10;34.80;;;;;;5050834;28;20401;-76
2022/07/08 02:54:15;;;;;;;798.90;725.70;;;14.10;36.60;;;;;;5052048;28;20448;-75
2022/07/08 02:56:40;;;;;;;841.35;761.58;;;14.00;38.10;;;;;;5051173;28;20129;-75
2022/07/08 02:59:06;;;;;;;818.10;743.13;;;13.90;40.20;;;;;;5050903;28;20493;-75
2022/07/08 03:01:32;;;;;;;908.40;807.55;;;13.80;47.80;;;;;;5047686;28;20056;-75
2022/07/08 03:03:57;;;;;;;1460.45;906.25;;;13.80;55.40;;;;;;5048631;28;20078;-75
2022/07/08 03:06:23;;;;;;;1616.40;967.13;;;13.70;65.10;;;;;;5050806;28;20289;-76
2022/07/08 03:08:49;;;;;;;1479.35;916.20;;;13.70;74.70;;;;;;5051130;28;20420;-75
2022/07/08 03:11:14;;;;;;;1515.22;947.28;;;13.60;71.50;;;;;;5050689;28;20045;-76
2022/07/08 03:13:40;;;;;;;1328.13;828.67;;;13.60;76.30;;;;;;5050627;28;20052;-76
2022/07/08 03:16:06;;;;;;;1449.80;897.47;;;13.60;80.50;;;;;;5050618;28;20131;-80
2022/07/08 03:18:36;;;;;;;1298.57;865.67;;;13.50;85.00;;;;;;5049998;28;20072;-76
2022/07/08 03:21:07;;;;;;;1500.97;930.08;;;13.50;90.50;;;;;;5050750;28;20386;-76
2022/07/08 03:23:33;;;;;;;1430.00;923.45;;;13.40;95.20;;;;;;5048625;28;20044;-76
2022/07/08 03:26:00;;;;;;;1392.47;889.25;;;13.40;98.20;;;;;;5050077;28;20048;-76
2022/07/08 03:28:26;;;;;;;1605.68;958.83;;;13.30;99.90;;;;;;5050817;28;20102;-79
2022/07/08 03:30:52;;;;;;;1335.90;881.05;;;13.30;99.90;;;;;;5049935;28;20418;-83
2022/07/08 03:33:17;;;;;;;1704.95;973.47;;;13.30;99.90;;;;;;5049253;28;20041;-83
2022/07/08 03:35:43;;;;;;;1732.57;978.67;;;13.30;99.90;;;;;;5082421;28;20049;-76
2022/07/08 03:38:09;;;;;;;1925.00;999.90;;;13.40;99.90;;;;;;5049881;28;20048;-84
2022/07/08 03:43:19;;;;;;;1496.30;937.10;;;13.30;99.90;;;;;;5050546;28;20068;-75
2022/07/08 03:45:45;;;;;;;1637.28;936.55;;;13.30;99.90;;;;;;5049407;28;20053;-80
2022/07/08 03:48:10;;;;;;;1934.35;996.97;;;13.20;99.90;;;;;;5049333;28;20044;-76
2022/07/08 03:50:36;;;;;;;1998.32;992.33;;;13.80;99.90;;;;;;5083755;28;20053;-76
2022/07/08 03:53:02;;;;;;;1999.90;999.90;;;13.20;99.90;;;;;;5050060;28;20052;-75
2022/07/08 03:55:27;;;;;;;1999.90;999.90;;;13.20;99.90;;;;;;5050343;28;20400;-75
2022/07/08 03:57:53;;;;;;;1969.63;999.90;;;13.20;99.90;;;;;;5049458;28;20044;-76
2022/07/08 04:00:19;;;;;;;1999.90;999.90;;;13.40;99.90;;;;;;5047751;28;20084;-75
2022/07/08 04:02:48;;;;;;;1999.90;999.90;;;13.30;99.90;;;;;;5048475;28;20524;-77
2022/07/08 04:05:14;;;;;;;1999.90;999.90;;;13.30;99.90;;;;;;5049200;28;20059;-76
2022/07/08 04:07:40;;;;;;;1999.90;999.90;;;13.30;99.90;;;;;;5048683;28;20048;-76
2022/07/08 04:10:06;;;;;;;1999.90;999.90;;;13.40;99.90;;;;;;5049832;28;20052;-76
2022/07/08 04:12:32;;;;;;;1999.90;999.90;;;13.40;99.90;;;;;;5049914;28;20041;-77
2022/07/08 04:14:58;;;;;;;1999.90;999.90;;;13.40;99.90;;;;;;5049432;28;20111;-81
2022/07/08 04:17:24;;;;;;;1999.90;999.90;;;13.40;99.90;;;;;;5049433;28;20354;-75
2022/07/08 04:19:50;;;;;;;1999.90;999.90;;;13.50;99.90;;;;;;5050910;28;20135;-75
2022/07/08 04:22:15;;;;;;;1999.90;999.90;;;13.50;99.90;;;;;;5050838;28;20033;-75
2022/07/08 04:24:41;;;;;;;1999.90;999.90;;;13.60;99.90;;;;;;5049404;28;20189;-86
2022/07/08 04:27:07;;;;;;;1999.90;999.90;;;13.80;99.90;;;;;;5047197;28;20048;-83
2022/07/08 04:29:33;;;;;;;1999.90;999.90;;;13.70;99.90;;;;;;5049092;28;20122;-77
2022/07/08 04:31:59;;;;;;;1978.15;999.90;;;13.70;99.90;;;;;;5049554;28;20045;-78
2022/07/08 04:34:24;;;;;;;1999.90;999.90;;;13.70;99.90;;;;;;5049489;28;20037;-74
2022/07/08 04:36:50;;;;;;;1999.90;999.90;;;13.70;99.90;;;;;;5049465;28;20049;-83
2022/07/08 04:39:16;;;;;;;1999.90;999.90;;;13.70;99.90;;;;;;5049079;28;20485;-75
2022/07/08 04:41:41;;;;;;;1999.90;999.90;;;13.70;99.90;;;;;;5050554;28;20338;-74
2022/07/08 04:44:07;;;;;;;1999.90;999.90;;;13.80;99.90;;;;;;5050422;28;20470;-75
2022/07/08 04:46:33;;;;;;;1999.90;999.90;;;13.80;99.90;;;;;;5049978;28;20057;-75
2022/07/08 04:48:58;;;;;;;1999.90;999.90;;;13.90;99.90;;;;;;5081550;28;20049;-75
2022/07/08 04:51:24;;;;;;;1999.90;999.90;;;13.90;99.90;;;;;;5049618;28;20094;-74
2022/07/08 04:53:49;;;;;;;1999.90;999.90;;;14.00;99.90;;;;;;5049935;28;20078;-79
2022/07/08 04:56:15;;;;;;;1999.90;999.90;;;14.00;99.90;;;;;;5050409;28;20075;-75
2022/07/08 04:58:41;;;;;;;1999.90;999.90;;;14.20;99.90;;;;;;5048377;28;20079;-75
2022/07/08 05:01:07;;;;;;;1999.90;999.90;;;14.40;99.90;;;;;;5047557;28;20048;-75
2022/07/08 05:03:33;;;;;;;1999.90;999.90;;;14.60;99.90;;;;;;5049856;28;20053;-74
2022/07/08 05:05:58;;;;;;;1999.90;999.90;;;14.80;99.90;;;;;;5049294;28;20132;-75
2022/07/08 05:08:24;;;;;;;1999.90;999.90;;;15.00;99.90;;;;;;5050158;28;20049;-75
2022/07/08 05:10:50;;;;;;;1999.90;999.90;;;15.20;99.90;;;;;;5086360;28;20127;-74
2022/07/08 05:13:16;;;;;;;1999.90;999.90;;;15.40;99.90;;;;;;5054016;28;20045;-75
2022/07/08 05:15:41;;;;;;;1999.90;999.90;;;15.50;99.90;;;;;;5049204;28;20037;-76
2022/07/08 05:18:07;;;;;;;1754.18;999.90;;;15.70;99.90;;;;;;5049634;28;20045;-85
2022/07/08 05:20:33;;;;;;;1050.97;934.13;;;15.80;99.90;;;;;;5053155;28;20098;-77
2022/07/08 05:22:58;;;;;;;1383.78;990.75;;;16.00;99.90;;;;;;5052282;28;20048;-78
2022/07/08 05:25:24;;;;;;;1487.50;999.90;;;16.10;99.90;;;;;;5051489;28;20049;-74
2022/07/08 05:27:50;;;;;;;1482.32;999.90;;;16.20;99.90;;;;;;5053223;28;20049;-75
2022/07/08 05:30:16;;;;;;;1957.63;999.90;;;16.30;99.90;;;;;;5051073;28;20053;-75
2022/07/08 05:32:42;;;;;;;948.97;859.47;;;16.40;99.90;;;;;;5052712;28;20045;-86
2022/07/08 05:35:09;;;;;;;933.83;847.92;;;16.40;96.20;;;;;;5050573;28;20433;-75
2022/07/08 05:37:38;;;;;;;830.08;756.45;;;16.30;90.50;;;;;;5053019;28;20472;-76
2022/07/08 05:40:06;;;;;;;820.63;743.53;;;16.20;81.70;;;;;;5051943;28;20081;-76
2022/07/08 05:42:31;;;;;;;876.47;790.33;;;16.10;90.10;;;;;;5053396;28;20045;-78
2022/07/08 05:44:57;;;;;;;863.45;783.00;;;16.00;91.80;;;;;;5053097;28;20122;-75
2022/07/08 05:47:23;;;;;;;967.67;864.95;;;16.00;91.10;;;;;;5068035;28;20495;-75
2022/07/08 05:49:48;;;;;;;889.75;806.13;;;15.90;93.60;;;;;;5052711;28;20481;-75
2022/07/08 05:52:14;;;;;;;1117.10;900.00;;;16.00;99.30;;;;;;5052356;28;20048;-75
2022/07/08 05:54:45;;;;;;;927.78;830.88;;;16.10;99.90;;;;;;5053274;28;20044;-75
2022/07/08 05:57:14;;;;;;;969.92;874.63;;;16.30;98.50;;;;;;5052762;28;20159;-74
2022/07/08 05:59:40;;;;;;;909.03;822.83;;;16.50;96.10;;;;;;5053016;28;20040;-75
2022/07/08 06:02:06;;;;;;;872.35;789.55;;;16.60;95.90;;;;;;5081490;28;20061;-74
2022/07/08 06:04:32;;;;;;;953.50;853.03;;;16.90;88.80;;;;;;5052786;28;20111;-74
2022/07/08 06:06:57;;;;;;;1225.10;963.30;;;17.10;80.20;;;;;;5052192;28;20045;-87
2022/07/08 06:09:24;;;;;;;932.30;841.38;;;17.30;67.30;;;;;;5052654;28;20163;-75
2022/07/08 06:11:50;;;;;;;1364.63;990.47;;;17.60;45.40;;;;;;5052461;28;20037;-73
2022/07/08 06:14:16;;;;;;;959.13;861.95;;;17.80;23.50;;;;;;5051619;28;20151;-75
2022/07/08 06:16:41;;;;;;;1410.55;999.90;;;17.90;17.80;;;;;;5053965;28;20037;-73
2022/07/08 06:19:07;;;;;;;1320.18;999.90;;;18.10;2.90;;;;;;5052700;28;20051;-75
2022/07/08 06:21:33;;;;;;;1228.05;999.05;;;18.20;1.00;;;;;;5052685;28;20041;-76
2022/07/08 06:24:00;;;;;;;1430.38;999.90;;;18.40;1.00;;;;;;5052884;28;20052;-75
2022/07/08 06:26:26;;;;;;;962.40;871.53;;;18.50;1.00;;;;;;5052880;28;20057;-74
2022/07/08 06:28:52;;;;;;;1028.80;926.65;;;18.60;1.00;;;;;;5052192;28;20128;-74
2022/07/08 06:31:18;;;;;;;1080.60;939.78;;;18.80;1.00;;;;;;5052345;28;20438;-74
2022/07/08 06:33:44;;;;;;;1002.78;908.10;;;18.90;1.00;;;;;;5052647;28;20105;-74
2022/07/08 06:36:09;;;;;;;1027.22;931.83;;;19.00;1.00;;;;;;5050236;28;20045;-77
2022/07/08 06:38:35;;;;;;;1093.28;982.30;;;19.10;1.00;;;;;;5051562;28;20072;-75
2022/07/08 06:41:01;;;;;;;1703.80;999.90;;;19.20;1.00;;;;;;5052468;28;20049;-74
2022/07/08 06:43:26;;;;;;;1053.70;949.40;;;19.40;1.00;;;;;;5052995;28;20045;-75
2022/07/08 06:45:52;;;;;;;1101.13;994.08;;;19.50;1.00;;;;;;5051411;28;20055;-79
2022/07/08 06:48:18;;;;;;;1081.68;985.15;;;19.60;1.00;;;;;;5051820;28;20044;-75
2022/07/08 06:50:44;;;;;;;1173.68;999.90;;;19.70;1.00;;;;;;5052407;28;20060;-75
2022/07/08 06:53:09;;;;;;;1048.82;946.38;;;19.70;1.00;;;;;;5052103;28;20037;-76
2022/07/08 06:55:35;;;;;;;1061.68;967.78;;;19.80;1.00;;;;;;5052399;28;20471;-75
2022/07/08 06:58:01;;;;;;;1967.25;999.90;;;19.90;1.00;;;;;;5052095;28;20084;-75
2022/07/08 07:00:27;;;;;;;1303.85;999.90;;;20.00;1.00;;;;;;5049803;28;20440;-74
2022/07/08 07:02:54;;;;;;;1264.30;999.90;;;20.00;1.00;;;;;;5082543;28;20053;-75
2022/07/08 07:05:20;;;;;;;960.38;878.17;;;20.10;1.00;;;;;;5051720;28;20386;-75
2022/07/08 07:07:46;;;;;;;1081.63;974.80;;;20.30;1.00;;;;;;5051932;28;20053;-77
2022/07/08 07:10:12;;;;;;;886.03;820.42;;;20.30;1.00;;;;;;5050420;28;20048;-75
2022/07/08 07:12:38;;;;;;;887.58;822.38;;;20.40;1.00;;;;;;5051862;28;20470;-77
2022/07/08 07:15:05;;;;;;;901.75;834.65;;;20.50;1.00;;;;;;5052005;28;20052;-75
2022/07/08 07:17:30;;;;;;;887.85;821.28;;;20.60;1.00;;;;;;5051457;28;20048;-75
2022/07/08 07:19:58;;;;;;;1019.63;929.22;;;20.80;1.00;;;;;;5051430;28;20363;-84
2022/07/08 07:22:24;;;;;;;1226.88;983.50;;;21.00;1.00;;;;;;5051811;28;20040;-77
2022/07/08 07:24:49;;;;;;;983.10;904.03;;;21.10;1.00;;;;;;5051912;28;20401;-78
2022/07/08 07:27:15;;;;;;;1075.30;969.97;;;21.30;1.00;;;;;;5051351;28;20045;-74
2022/07/08 07:29:41;;;;;;;1019.63;932.90;;;21.40;1.00;;;;;;5051388;28;20091;-74
2022/07/08 07:32:07;;;;;;;1335.45;999.90;;;21.50;1.00;;;;;;5051158;28;20110;-75
2022/07/08 07:34:33;;;;;;;1075.95;964.03;;;21.60;1.00;;;;;;5051421;28;20055;-75
2022/07/08 07:36:58;;;;;;;958.45;879.47;;;21.60;1.00;;;;;;5051479;28;20048;-75
2022/07/08 07:39:25;;;;;;;1084.15;968.20;;;21.60;1.00;;;;;;5051236;28;20049;-75
2022/07/08 07:41:51;;;;;;;949.40;863.17;;;21.70;1.00;;;;;;5051446;28;20045;-78
2022/07/08 07:44:16;;;;;;;970.45;886.50;;;21.90;1.00;;;;;;5051242;28;20106;-75
2022/07/08 07:46:42;;;;;;;748.35;693.35;;;22.10;1.00;;;;;;5051207;28;20045;-74
2022/07/08 07:49:08;;;;;;;750.30;693.25;;;22.40;1.00;;;;;;5049878;28;20127;-74
2022/07/08 07:51:34;;;;;;;777.85;722.25;;;22.60;1.00;;;;;;5050965;28;20041;-76
2022/07/08 07:53:59;;;;;;;713.38;662.30;;;22.70;99.90;;;;;;5050179;28;20072;-73
2022/07/08 07:56:25;;;;;;;839.97;776.10;;;22.60;99.90;;;;;;5051122;28;20186;-74
2022/07/08 07:58:51;;;;;;;957.80;873.97;;;22.50;99.90;;;;;;5051209;28;20095;-74
2022/07/08 08:01:16;;;;;;;1215.30;999.90;;;22.40;99.90;;;;;;5046773;28;20100;-74
2022/07/08 08:03:42;;;;;;;993.13;899.63;;;22.50;99.90;;;;;;5049403;28;20053;-74
2022/07/08 08:06:08;;;;;;;814.92;748.38;;;22.60;99.90;;;;;;5083301;28;20080;-78
2022/07/08 08:08:34;;;;;;;832.28;766.35;;;22.60;99.90;;;;;;5051171;28;20091;-75
2022/07/08 08:11:01;;;;;;;806.40;742.35;;;22.90;99.90;;;;;;5051686;28;20098;-75
2022/07/08 08:13:27;;;;;;;806.85;746.15;;;23.00;99.90;;;;;;5051223;28;20146;-75
2022/07/08 08:15:54;;;;;;;854.88;790.75;;;23.10;99.90;;;;;;5051530;28;20084;-75
2022/07/08 08:18:20;;;;;;;834.78;772.80;;;23.00;99.90;;;;;;5051006;28;20151;-75
2022/07/08 08:20:45;;;;;;;912.38;835.00;;;23.00;99.90;;;;;;5051530;28;20120;-75
2022/07/08 08:23:12;;;;;;;811.78;748.72;;;23.00;99.90;;;;;;5051873;28;20373;-76
2022/07/08 08:25:37;;;;;;;821.13;758.80;;;23.20;99.90;;;;;;5051294;28;20444;-76
2022/07/08 08:28:04;;;;;;;878.17;812.30;;;23.10;99.90;;;;;;5051474;28;20057;-75
2022/07/08 08:30:30;;;;;;;911.67;840.95;;;23.30;99.90;;;;;;5049920;28;20056;-79
2022/07/08 08:32:55;;;;;;;917.00;836.58;;;23.60;99.90;;;;;;5050686;28;20048;-76
2022/07/08 08:35:21;;;;;;;895.58;828.10;;;23.70;99.90;;;;;;5083673;28;20167;-75
2022/07/08 08:37:47;;;;;;;888.90;822.00;;;23.90;99.90;;;;;;5050843;28;20045;-75
2022/07/08 08:40:13;;;;;;;829.85;764.92;;;24.00;99.90;;;;;;5051351;28;20125;-76
2022/07/08 08:42:40;;;;;;;844.95;779.53;;;24.20;99.90;;;;;;5049516;28;20499;-76
2022/07/08 08:45:07;;;;;;;842.33;777.47;;;24.00;99.90;;;;;;5054230;28;20045;-76
2022/07/08 08:47:36;;;;;;;882.53;815.80;;;23.90;99.90;;;;;;5054910;28;20045;-79
2022/07/08 08:52:49;;;;;;;882.28;816.47;;;23.20;99.90;;;;;;5054983;28;20055;-76
2022/07/08 08:55:29;;;;;;;860.30;797.42;;;23.10;99.90;;;;;;5055101;28;20041;-75
2022/07/08 08:58:05;;;;;;;858.90;795.53;;;23.10;99.90;;;;;;5055119;28;20391;-75
2022/07/08 09:00:33;;;;;;;860.15;794.80;;;23.20;99.90;;;;;;5054663;28;20048;-75
2022/07/08 09:03:00;;;;;;;875.13;811.92;;;23.20;99.90;;;;;;5054762;28;20104;-75
2022/07/08 09:05:27;;;;;;;868.80;804.22;;;23.20;99.90;;;;;;5054576;28;20428;-75
2022/07/08 09:07:54;;;;;;;853.25;790.15;;;23.00;99.90;;;;;;5054419;28;20128;-77
2022/07/08 09:10:20;;;;;;;869.60;806.03;;;22.90;99.90;;;;;;5053633;28;20088;-78
2022/07/08 09:13:02;;;;;;;940.08;868.13;;;22.90;99.90;;;;;;5053804;28;20041;-77
2022/07/08 09:15:43;;;;;;;914.78;847.15;;;23.10;99.90;;;;;;5052678;28;20052;-77
2022/07/08 09:18:17;;;;;;;876.80;810.10;;;23.20;99.90;;;;;;5053992;28;20142;-77
2022/07/08 09:20:44;;;;;;;886.38;821.00;;;23.40;99.90;;;;;;5053819;28;20182;-77
2022/07/08 09:23:16;;;;;;;820.25;759.35;;;23.60;99.90;;;;;;5053540;28;20124;-77
2022/07/08 09:25:42;;;;;;;959.17;881.55;;;23.70;99.90;;;;;;5086469;28;20132;-75
2022/07/08 09:28:08;;;;;;;826.55;764.05;;;23.80;99.90;;;;;;5054717;28;20128;-75
2022/07/08 09:30:33;;;;;;;712.78;657.83;;;23.80;99.90;;;;;;5052718;28;20495;-79
2022/07/08 09:33:01;;;;;;;837.17;755.00;;;23.90;99.90;;;;;;5053429;28;20438;-83
2022/07/08 09:35:50;;;;;;;794.40;727.35;;;24.40;99.90;;;;;;5051990;28;20053;-76
2022/07/08 09:38:18;;;;;;;953.45;831.33;;;24.90;99.90;;;;;;5053386;28;20053;-72
2022/07/08 09:40:56;;;;;;;771.38;707.05;;;25.00;99.90;;;;;;5053406;28;20045;-73
2022/07/08 09:43:23;;;;;;;864.75;785.20;;;24.90;99.90;;;;;;5053070;28;20055;-77
2022/07/08 09:45:48;;;;;;;966.03;869.72;;;24.60;99.90;;;;;;5052341;28;20049;-74
2022/07/08 09:48:14;;;;;;;945.20;853.03;;;24.30;99.90;;;;;;5052925;28;20132;-75
2022/07/08 09:50:45;;;;;;;869.58;790.95;;;24.10;99.90;;;;;;5053133;28;20045;-74
2022/07/08 09:53:23;;;;;;;827.50;755.35;;;24.00;99.90;;;;;;5053547;28;20047;-75
2022/07/08 09:55:55;;;;;;;772.43;707.10;;;24.00;99.90;;;;;;5052604;28;20136;-75
2022/07/08 09:58:26;;;;;;;922.50;837.60;;;24.00;99.90;;;;;;5052874;28;20541;-75
2022/07/08 10:00:54;;;;;;;815.17;745.25;;;23.90;99.90;;;;;;5050760;28;20049;-81
2022/07/08 10:03:22;;;;;;;907.75;829.50;;;23.80;99.90;;;;;;5051291;28;20481;-81
2022/07/08 10:05:48;;;;;;;879.22;803.38;;;23.80;99.90;;;;;;5051058;28;20052;-74
2022/07/08 10:08:15;;;;;;;802.50;736.78;;;23.80;99.90;;;;;;5052973;28;20219;-75
2022/07/08 10:10:42;;;;;;;899.10;817.10;;;23.90;99.90;;;;;;5051918;28;20045;-74
2022/07/08 10:13:08;;;;;;;910.58;827.72;;;24.10;99.90;;;;;;5052001;28;20449;-74
2022/07/08 10:15:35;;;;;;;789.42;723.92;;;24.00;99.90;;;;;;5052267;28;20068;-75
2022/07/08 10:18:17;;;;;;;913.42;834.78;;;23.90;99.90;;;;;;5051889;28;20457;-75
2022/07/08 10:20:47;;;;;;;850.47;777.70;;;23.80;99.90;;;;;;5052392;28;20056;-74
2022/07/08 10:23:22;;;;;;;872.53;797.33;;;23.50;99.90;;;;;;5053238;28;20048;-74
2022/07/08 10:25:49;;;;;;;830.10;757.97;;;23.40;99.90;;;;;;5051572;28;20141;-75
2022/07/08 10:28:15;;;;;;;873.08;794.55;;;23.30;99.90;;;;;;5052705;28;20045;-74
2022/07/08 10:30:49;;;;;;;934.45;845.95;;;23.40;99.90;;;;;;5052130;28;20090;-75
2022/07/08 10:33:19;;;;;;;915.38;832.92;;;23.70;99.90;;;;;;5052428;28;20044;-75
2022/07/08 10:36:06;;;;;;;868.83;795.65;;;23.70;99.90;;;;;;5050057;28;20045;-75
2022/07/08 10:38:37;;;;;;;945.28;859.83;;;23.90;99.90;;;;;;5051692;28;20046;-77
2022/07/08 10:41:07;;;;;;;1206.75;999.90;;;24.10;99.90;;;;;;5052430;28;20129;-78
2022/07/08 10:43:33;;;;;;;1005.88;912.72;;;24.30;99.90;;;;;;5051512;28;20118;-81
2022/07/08 10:46:05;;;;;;;1042.43;944.35;;;24.40;99.90;;;;;;5051962;28;20063;-76
2022/07/08 10:48:39;;;;;;;989.45;898.80;;;24.30;99.90;;;;;;5051070;28;20125;-86
2022/07/08 10:51:05;;;;;;;1029.65;929.67;;;24.40;99.90;;;;;;5082086;28;20132;-88
2022/07/08 10:54:01;;;;;;;1069.78;959.58;;;24.80;99.90;;;;;;5047780;28;20359;-86
2022/07/08 10:56:53;;;;;;;1024.32;920.92;;;25.30;99.90;;;;;;5050187;28;20528;-74
2022/07/08 10:59:31;;;;;;;1786.85;999.90;;;25.40;99.90;;;;;;5051014;28;20061;-74
2022/07/08 11:02:03;;;;;;;1035.72;933.72;;;25.30;99.90;;;;;;5048791;28;20063;-74
2022/07/08 11:04:34;;;;;;;1247.93;993.75;;;25.70;99.90;;;;;;5050687;28;20049;-78
2022/07/08 11:09:50;;;;;;;1023.70;922.75;;;25.80;99.90;;;;;;5049304;28;20513;-87
2022/07/08 11:12:19;;;;;;;942.35;853.85;;;26.10;99.90;;;;;;5051196;28;20037;-76
2022/07/08 11:14:46;;;;;;;894.42;817.45;;;26.70;99.90;;;;;;5051292;28;20052;-75
2022/07/08 11:17:19;;;;;;;791.47;723.05;;;27.10;99.90;;;;;;5066710;28;20060;-77
2022/07/08 11:19:47;;;;;;;981.10;895.95;;;27.60;99.90;;;;;;5050788;28;20048;-76
2022/07/08 11:22:13;;;;;;;944.45;868.75;;;28.20;99.90;;;;;;5051572;28;20080;-77
2022/07/08 11:24:40;;;;;;;969.78;884.22;;;28.30;99.90;;;;;;5050332;28;20099;-76
2022/07/08 11:27:06;;;;;;;963.40;880.10;;;28.60;99.90;;;;;;5051113;28;20048;-77
2022/07/08 11:29:33;;;;;;;966.88;883.20;;;29.40;99.90;;;;;;5051210;28;20041;-85
2022/07/08 11:32:00;;;;;;;1027.78;933.45;;;29.90;99.90;;;;;;5051260;28;20124;-78
2022/07/08 11:34:25;;;;;;;1002.25;914.97;;;30.20;99.90;;;;;;5050290;28;20053;-78
2022/07/08 11:36:59;;;;;;;982.67;894.50;;;30.40;99.90;;;;;;5050295;28;20492;-78
2022/07/08 11:39:25;;;;;;;1048.30;948.65;;;30.50;99.90;;;;;;5050382;28;20131;-75
2022/07/08 11:41:51;;;;;;;1999.90;999.90;;;30.80;99.90;;;;;;5051004;28;20152;-74
2022/07/08 11:44:20;;;;;;;1999.90;999.90;;;31.40;99.90;;;;;;5051158;28;20127;-75
2022/07/08 11:46:46;;;;;;;1999.90;999.90;;;32.40;99.90;;;;;;5050228;28;20053;-74
2022/07/08 11:49:13;;;;;;;1999.90;999.90;;;32.70;99.90;;;;;;5050691;28;20136;-72
2022/07/08 11:51:43;;;;;;;1999.90;999.90;;;33.10;99.90;;;;;;5049646;28;20040;-72
2022/07/08 11:54:09;;;;;;;1999.90;999.90;;;32.50;99.90;;;;;;5050600;28;20448;-72
2022/07/08 11:56:34;;;;;;;1999.90;999.90;;;31.80;99.90;;;;;;5050675;28;20421;-75
2022/07/08 11:59:00;;;;;;;1999.90;999.90;;;31.30;99.90;;;;;;5065830;28;20528;-76
2022/07/08 12:01:26;;;;;;;1999.90;999.90;;;31.20;99.90;;;;;;5049128;28;20067;-73
2022/07/08 12:03:52;;;;;;;1999.90;999.90;;;31.10;99.90;;;;;;5049292;28;20663;-73
2022/07/08 12:06:26;;;;;;;1999.90;999.90;;;30.40;99.90;;;;;;5051048;28;20049;-73
2022/07/08 12:08:53;;;;;;;1999.90;999.90;;;30.60;99.90;;;;;;5049975;28;20041;-73
2022/07/08 12:11:21;;;;;;;1999.90;999.90;;;31.40;99.90;;;;;;5050933;28;20041;-73
2022/07/08 12:13:51;;;;;;;1999.90;999.90;;;31.20;99.90;;;;;;5050499;28;20047;-74